createdAt,value
2022-11-30T00:01:20.378Z,28.20
2022-11-30T00:03:47.888Z,26.25
2022-11-30T00:06:16.230Z,24.27
2022-11-30T00:08:43.527Z,25.88
2022-11-30T00:11:15.310Z,25.58
2022-11-30T00:13:42.608Z,25.70
2022-11-30T00:16:10.161Z,27.20
2022-11-30T00:18:37.491Z,25.42
2022-11-30T00:21:06.432Z,23.65
2022-11-30T00:23:40.879Z,25.05
2022-11-30T00:26:09.736Z,24.85
2022-11-30T00:28:37.636Z,25.33
2022-11-30T00:31:06.665Z,25.08
2022-11-30T00:33:34.768Z,26.27
2022-11-30T00:36:03.356Z,24.13
2022-11-30T00:38:31.917Z,24.50
2022-11-30T00:40:59.929Z,24.77
2022-11-30T00:43:27.509Z,24.80
2022-11-30T00:45:55.202Z,25.15
2022-11-30T00:48:22.623Z,24.75
2022-11-30T00:50:50.127Z,24.73
2022-11-30T00:53:17.980Z,26.13
2022-11-30T00:55:45.379Z,26.73
2022-11-30T00:58:12.773Z,24.67
2022-11-30T01:00:41.784Z,24.67
2022-11-30T01:03:09.163Z,23.10
2022-11-30T01:05:36.585Z,23.90
2022-11-30T01:08:05.560Z,24.58
2022-11-30T01:10:34.058Z,26.10
2022-11-30T01:13:01.817Z,23.55
2022-11-30T01:15:29.445Z,23.30
2022-11-30T01:17:58.679Z,24.23
2022-11-30T01:20:26.007Z,23.10
2022-11-30T01:22:54.592Z,23.15
2022-11-30T01:25:22.657Z,22.90
2022-11-30T01:27:50.546Z,23.80
2022-11-30T01:30:18.137Z,23.60
2022-11-30T01:32:45.435Z,25.02
2022-11-30T01:35:12.763Z,24.83
2022-11-30T01:37:40.051Z,25.15
2022-11-30T01:40:07.903Z,25.10
2022-11-30T01:42:37.852Z,25.10
2022-11-30T01:45:05.885Z,27.23
2022-11-30T01:47:37.545Z,27.90
2022-11-30T01:50:16.696Z,26.38
2022-11-30T01:52:45.545Z,27.35
2022-11-30T01:55:37.882Z,26.58
2022-11-30T01:58:14.190Z,28.10
2022-11-30T02:00:44.214Z,27.83
2022-11-30T02:03:15.049Z,27.92
2022-11-30T02:05:42.425Z,28.50
2022-11-30T02:08:10.870Z,29.83
2022-11-30T02:10:39.998Z,28.33
2022-11-30T02:13:11.340Z,28.77
2022-11-30T02:15:58.965Z,26.85
2022-11-30T02:18:46.860Z,26.05
2022-11-30T02:21:36.949Z,26.27
2022-11-30T02:24:33.390Z,27.90
2022-11-30T02:27:15.197Z,27.63
2022-11-30T02:30:02.051Z,29.02
2022-11-30T02:32:31.665Z,27.58
2022-11-30T02:34:59.296Z,27.95
2022-11-30T02:37:26.628Z,28.85
2022-11-30T02:39:53.959Z,28.15
2022-11-30T02:42:21.259Z,30.02
2022-11-30T02:44:50.008Z,29.02
2022-11-30T02:47:17.431Z,29.73
2022-11-30T02:49:49.943Z,29.83
2022-11-30T02:52:17.392Z,28.67
2022-11-30T02:54:44.907Z,30.83
2022-11-30T02:57:12.604Z,30.35
2022-11-30T02:59:39.888Z,30.25
2022-11-30T03:02:07.499Z,31.88
2022-11-30T03:04:34.819Z,29.73
2022-11-30T03:07:02.140Z,29.45
2022-11-30T03:09:29.430Z,29.70
2022-11-30T03:11:56.761Z,29.65
2022-11-30T03:14:24.063Z,28.90
2022-11-30T03:16:51.421Z,28.60
2022-11-30T03:19:18.716Z,27.20
2022-11-30T03:21:45.980Z,27.52
2022-11-30T03:24:13.362Z,26.40
2022-11-30T03:26:40.700Z,27.15
2022-11-30T03:29:07.965Z,25.38
2022-11-30T03:31:35.322Z,25.33
2022-11-30T03:34:02.812Z,25.17
2022-11-30T03:36:30.081Z,24.15
2022-11-30T03:38:57.438Z,24.15
2022-11-30T03:41:24.765Z,23.65
2022-11-30T03:43:52.050Z,23.48
2022-11-30T03:46:19.637Z,23.50
2022-11-30T03:48:46.996Z,23.48
2022-11-30T03:51:14.570Z,21.67
2022-11-30T03:53:41.950Z,25.17
2022-11-30T03:56:09.905Z,24.88
2022-11-30T03:58:37.427Z,25.33
2022-11-30T04:01:16.109Z,25.77
2022-11-30T04:03:43.567Z,23.48
2022-11-30T04:06:11.646Z,23.67
2022-11-30T04:08:39.136Z,24.17
2022-11-30T04:11:06.569Z,26.42
2022-11-30T04:13:34.348Z,24.67
2022-11-30T04:16:01.813Z,22.95
2022-11-30T04:18:31.597Z,23.70
2022-11-30T04:20:59.295Z,23.23
2022-11-30T04:23:29.324Z,23.75
2022-11-30T04:25:57.132Z,23.90
2022-11-30T04:28:24.457Z,24.83
2022-11-30T04:30:53.236Z,23.80
2022-11-30T04:33:20.626Z,23.77
2022-11-30T04:35:49.503Z,23.45
2022-11-30T04:38:16.856Z,23.80
2022-11-30T04:40:44.226Z,24.15
2022-11-30T04:43:11.850Z,22.58
2022-11-30T04:45:39.509Z,25.38
2022-11-30T04:48:07.177Z,24.83
2022-11-30T04:50:34.783Z,24.45
2022-11-30T04:53:02.132Z,24.98
2022-11-30T04:55:29.515Z,22.85
2022-11-30T04:57:56.839Z,22.60
2022-11-30T05:00:24.317Z,23.67
2022-11-30T05:02:53.188Z,24.85
2022-11-30T05:05:20.780Z,22.58
2022-11-30T05:07:54.556Z,24.88
2022-11-30T05:10:21.950Z,17.95
2022-11-30T05:12:50.224Z,22.58
2022-11-30T05:15:17.749Z,23.15
2022-11-30T05:17:45.055Z,25.17
2022-11-30T05:20:12.452Z,23.77
2022-11-30T05:22:39.784Z,22.48
2022-11-30T05:25:07.506Z,22.65
2022-11-30T05:27:35.363Z,21.15
2022-11-30T05:30:03.178Z,22.27
2022-11-30T05:32:30.459Z,24.05
2022-11-30T05:34:58.378Z,23.38
2022-11-30T05:37:26.026Z,21.63
2022-11-30T05:39:53.300Z,24.45
2022-11-30T05:42:20.839Z,24.73
2022-11-30T05:44:48.436Z,23.48
2022-11-30T05:47:16.199Z,24.98
2022-11-30T05:49:43.575Z,23.67
2022-11-30T05:52:10.905Z,23.67
2022-11-30T05:54:38.218Z,22.05
2022-11-30T05:57:05.499Z,22.15
2022-11-30T05:59:32.886Z,22.55
2022-11-30T06:02:00.311Z,23.02
2022-11-30T06:04:27.947Z,21.40
2022-11-30T06:06:57.847Z,23.30
2022-11-30T06:09:25.268Z,21.65
2022-11-30T06:11:52.543Z,21.73
2022-11-30T06:14:19.859Z,22.85
2022-11-30T06:16:47.213Z,21.90
2022-11-30T06:19:14.546Z,24.75
2022-11-30T06:21:41.947Z,22.83
2022-11-30T06:24:10.128Z,22.52
2022-11-30T06:26:37.497Z,22.00
2022-11-30T06:29:04.775Z,20.33
2022-11-30T06:31:32.213Z,21.27
2022-11-30T06:33:59.651Z,22.17
2022-11-30T06:36:31.288Z,20.27
2022-11-30T06:39:02.872Z,20.38
2022-11-30T06:41:30.174Z,20.52
2022-11-30T06:43:57.463Z,22.20
2022-11-30T06:46:25.067Z,21.63
2022-11-30T06:48:52.344Z,21.05
2022-11-30T06:51:19.717Z,22.25
2022-11-30T06:53:47.178Z,21.95
2022-11-30T06:56:14.547Z,22.02
2022-11-30T06:58:41.964Z,20.00
2022-11-30T07:01:12.865Z,20.75
2022-11-30T07:03:41.680Z,21.25
2022-11-30T07:06:10.300Z,21.63
2022-11-30T07:08:37.781Z,20.60
2022-11-30T07:11:05.475Z,20.45
2022-11-30T07:13:32.860Z,20.40
2022-11-30T07:16:02.797Z,20.90
2022-11-30T07:18:32.124Z,20.17
2022-11-30T07:21:01.041Z,19.27
2022-11-30T07:23:52.262Z,19.35
2022-11-30T07:26:22.079Z,19.98
2022-11-30T07:28:54.305Z,19.17
2022-11-30T07:31:32.217Z,18.85
2022-11-30T07:34:02.622Z,17.75
2022-11-30T07:36:31.580Z,18.45
2022-11-30T07:38:58.929Z,18.23
2022-11-30T07:41:26.542Z,17.35
2022-11-30T07:43:53.936Z,20.02
2022-11-30T07:46:21.273Z,16.95
2022-11-30T07:48:48.573Z,18.88
2022-11-30T07:51:17.935Z,18.25
2022-11-30T07:53:45.272Z,19.02
2022-11-30T07:56:14.157Z,18.13
2022-11-30T07:58:41.767Z,18.63
2022-11-30T08:01:14.069Z,19.27
2022-11-30T08:03:41.629Z,19.08
2022-11-30T08:06:11.506Z,19.42
2022-11-30T08:08:40.588Z,19.10
2022-11-30T08:11:08.630Z,19.20
2022-11-30T08:13:35.924Z,19.60
2022-11-30T08:16:04.082Z,19.40
2022-11-30T08:18:31.409Z,19.85
2022-11-30T08:20:59.903Z,19.73
2022-11-30T08:23:31.334Z,20.45
2022-11-30T08:26:12.202Z,20.30
2022-11-30T08:28:40.174Z,19.92
2022-11-30T08:31:09.750Z,20.20
2022-11-30T08:33:37.259Z,20.30
2022-11-30T08:36:12.287Z,20.67
2022-11-30T08:38:40.066Z,22.30
2022-11-30T08:41:07.791Z,23.10
2022-11-30T08:43:35.121Z,20.95
2022-11-30T08:46:11.366Z,22.23
2022-11-30T08:48:50.190Z,21.02
2022-11-30T08:51:18.146Z,22.65
2022-11-30T08:53:45.717Z,21.05
2022-11-30T08:56:18.272Z,23.17
2022-11-30T08:58:45.832Z,21.80
2022-11-30T09:01:17.015Z,22.55
2022-11-30T09:03:44.908Z,22.00
2022-11-30T09:06:13.787Z,21.65
2022-11-30T09:08:42.060Z,21.48
2022-11-30T09:11:20.071Z,21.48
2022-11-30T09:13:47.524Z,20.92
2022-11-30T09:16:15.705Z,23.15
2022-11-30T09:18:43.070Z,22.45
2022-11-30T09:21:12.026Z,22.10
2022-11-30T09:23:39.449Z,22.63
2022-11-30T09:26:09.475Z,21.55
2022-11-30T09:28:36.829Z,21.02
2022-11-30T09:31:09.651Z,20.58
2022-11-30T09:33:37.138Z,21.48
2022-11-30T09:36:06.501Z,21.92
2022-11-30T09:38:33.903Z,23.27
2022-11-30T09:41:04.364Z,22.17
2022-11-30T09:43:51.718Z,22.23
2022-11-30T09:46:19.114Z,22.20
2022-11-30T09:49:06.118Z,22.02
2022-11-30T09:51:39.883Z,21.67
2022-11-30T09:54:10.429Z,20.47
2022-11-30T09:56:40.751Z,20.27
2022-11-30T09:59:26.442Z,21.65
2022-11-30T10:01:57.085Z,21.45
2022-11-30T10:04:30.744Z,18.92
2022-11-30T10:07:11.888Z,19.35
2022-11-30T10:10:15.901Z,19.20
2022-11-30T10:12:41.764Z,19.38
2022-11-30T10:15:20.940Z,19.10
2022-11-30T10:18:13.931Z,17.60
2022-11-30T10:21:23.002Z,17.45
2022-11-30T10:24:17.990Z,17.02
2022-11-30T10:26:53.434Z,16.80
2022-11-30T10:29:42.017Z,18.05
2022-11-30T10:32:17.693Z,17.15
2022-11-30T10:34:46.230Z,16.83
2022-11-30T10:37:34.295Z,15.90
2022-11-30T10:40:06.150Z,15.40
2022-11-30T10:43:06.535Z,14.00
2022-11-30T10:45:33.828Z,12.02
2022-11-30T10:48:09.029Z,13.48
2022-11-30T10:50:36.357Z,13.02
2022-11-30T10:53:03.708Z,13.57
2022-11-30T10:55:35.379Z,14.07
2022-11-30T10:58:05.301Z,14.45
2022-11-30T11:00:32.609Z,14.35
2022-11-30T11:02:59.928Z,15.82
2022-11-30T11:05:29.393Z,15.80
2022-11-30T11:08:19.587Z,16.80
2022-11-30T11:10:49.739Z,17.25
2022-11-30T11:13:39.122Z,18.73
2022-11-30T11:16:12.062Z,18.05
2022-11-30T11:18:57.096Z,18.70
2022-11-30T11:21:24.564Z,17.60
2022-11-30T11:23:55.472Z,17.85
2022-11-30T11:26:28.497Z,16.77
2022-11-30T11:28:56.877Z,18.10
2022-11-30T11:31:42.732Z,16.27
2022-11-30T11:34:31.984Z,15.82
2022-11-30T11:37:33.672Z,14.95
2022-11-30T11:40:10.362Z,14.85
2022-11-30T11:42:42.184Z,14.80
2022-11-30T11:45:16.818Z,15.73
2022-11-30T11:47:45.004Z,14.45
2022-11-30T11:50:12.277Z,14.68
2022-11-30T11:52:39.652Z,14.65
2022-11-30T11:55:12.713Z,14.95
2022-11-30T11:57:52.385Z,13.27
2022-11-30T12:00:21.518Z,13.73
2022-11-30T12:02:57.702Z,12.95
2022-11-30T12:05:44.370Z,12.90
2022-11-30T12:08:23.810Z,12.55
2022-11-30T12:11:00.845Z,12.07
2022-11-30T12:13:41.436Z,12.57
2022-11-30T12:16:26.197Z,11.25
2022-11-30T12:19:00.523Z,12.18
2022-11-30T12:21:58.880Z,12.32
2022-11-30T12:24:44.855Z,12.13
2022-11-30T12:27:12.054Z,14.07
2022-11-30T12:30:01.162Z,14.77
2022-11-30T12:33:10.306Z,16.20
2022-11-30T12:36:03.177Z,15.35
2022-11-30T12:38:36.823Z,14.40
2022-11-30T12:41:04.112Z,11.48
2022-11-30T12:44:01.476Z,16.20
2022-11-30T12:46:32.646Z,15.95
2022-11-30T12:49:34.607Z,16.38
2022-11-30T12:52:16.854Z,15.27
2022-11-30T12:54:53.926Z,16.08
2022-11-30T12:57:30.724Z,17.15
2022-11-30T13:00:13.053Z,17.08
2022-11-30T13:03:27.674Z,16.33
2022-11-30T13:05:57.993Z,16.50
2022-11-30T13:08:25.667Z,15.70
2022-11-30T13:10:58.979Z,17.58
2022-11-30T13:13:29.717Z,17.83
2022-11-30T13:15:57.140Z,18.60
2022-11-30T13:18:24.537Z,17.38
2022-11-30T13:21:07.279Z,17.55
2022-11-30T13:23:36.113Z,14.45
2022-11-30T13:26:15.637Z,15.00
2022-11-30T13:28:48.524Z,13.63
2022-11-30T13:31:29.393Z,11.77
2022-11-30T13:33:57.439Z,13.88
2022-11-30T13:36:32.315Z,13.63
2022-11-30T13:39:15.123Z,15.52
2022-11-30T13:41:45.210Z,15.93
2022-11-30T13:44:35.266Z,15.88
2022-11-30T13:47:04.390Z,14.25
2022-11-30T13:49:33.519Z,16.65
2022-11-30T13:52:22.259Z,16.60
2022-11-30T13:54:57.287Z,18.42
2022-11-30T13:57:24.612Z,15.63
2022-11-30T13:59:57.175Z,14.82
2022-11-30T14:05:32.880Z,14.65
2022-11-30T14:08:00.284Z,14.60
2022-11-30T14:10:39.120Z,15.27
2022-11-30T14:13:09.798Z,15.20
2022-11-30T14:15:41.602Z,14.20
2022-11-30T14:18:18.648Z,13.70
2022-11-30T14:20:52.047Z,14.90
2022-11-30T14:23:41.799Z,13.30
2022-11-30T14:26:11.518Z,14.50
2022-11-30T14:28:47.438Z,16.25
2022-11-30T14:31:21.239Z,16.88
2022-11-30T14:33:53.393Z,13.23
2022-11-30T14:36:21.783Z,17.27
2022-11-30T14:38:49.084Z,17.48
2022-11-30T14:41:20.917Z,18.08
2022-11-30T14:44:17.690Z,19.58
2022-11-30T14:46:45.084Z,18.85
2022-11-30T14:49:20.256Z,19.77
2022-11-30T14:52:08.803Z,18.00
2022-11-30T14:54:53.869Z,18.58
2022-11-30T14:59:53.165Z,17.65
2022-11-30T15:02:29.437Z,22.83
2022-11-30T15:04:57.453Z,23.67
2022-11-30T15:07:25.040Z,23.52
2022-11-30T15:10:19.908Z,24.85
2022-11-30T15:12:47.223Z,23.98
2022-11-30T15:15:26.383Z,22.88
2022-11-30T15:18:20.642Z,24.60
2022-11-30T15:21:15.429Z,24.17
2022-11-30T15:23:46.729Z,17.95
2022-11-30T15:26:21.292Z,24.02
2022-11-30T15:28:59.359Z,22.92
2022-11-30T15:31:34.606Z,23.45
2022-11-30T15:34:02.085Z,23.48
2022-11-30T15:36:38.017Z,25.80
2022-11-30T15:39:08.358Z,24.35
2022-11-30T15:41:35.750Z,25.10
2022-11-30T15:44:03.156Z,22.83
2022-11-30T15:46:38.623Z,23.80
2022-11-30T15:49:38.004Z,22.17
2022-11-30T15:52:09.134Z,22.95
2022-11-30T15:54:49.399Z,21.15
2022-11-30T15:57:17.001Z,22.75
2022-11-30T15:59:44.531Z,21.40
2022-11-30T16:02:31.259Z,22.70
2022-11-30T16:04:58.579Z,23.90
2022-11-30T16:07:28.692Z,23.00
2022-11-30T16:10:06.410Z,21.65
2022-11-30T16:12:33.745Z,25.48
2022-11-30T16:15:01.023Z,23.17
2022-11-30T16:17:29.967Z,23.65
2022-11-30T16:19:57.310Z,24.42
2022-11-30T16:22:24.663Z,24.20
2022-11-30T16:24:51.979Z,23.45
2022-11-30T16:27:19.808Z,23.50
2022-11-30T16:29:52.093Z,23.48
2022-11-30T16:32:19.889Z,23.05
2022-11-30T16:34:47.512Z,23.63
2022-11-30T16:37:14.875Z,23.60
2022-11-30T16:39:42.225Z,23.08
2022-11-30T16:42:12.692Z,23.83
2022-11-30T16:44:40.004Z,21.98
2022-11-30T16:47:07.316Z,22.50
2022-11-30T16:49:34.653Z,22.52
2022-11-30T16:52:01.940Z,22.52
2022-11-30T16:54:29.255Z,24.33
2022-11-30T16:56:56.839Z,23.30
2022-11-30T16:59:24.172Z,23.15
2022-11-30T17:01:52.964Z,23.90
2022-11-30T17:04:22.876Z,23.30
2022-11-30T17:06:52.146Z,23.58
2022-11-30T17:09:21.173Z,23.40
2022-11-30T17:11:52.122Z,23.77
2022-11-30T17:14:19.699Z,23.58
2022-11-30T17:16:47.073Z,26.73
2022-11-30T17:19:14.388Z,25.02
2022-11-30T17:21:42.950Z,24.67
2022-11-30T17:24:10.255Z,23.13
2022-11-30T17:26:37.543Z,23.35
2022-11-30T17:29:04.874Z,25.35
2022-11-30T17:31:32.487Z,23.10
2022-11-30T17:33:59.842Z,24.90
2022-11-30T17:36:29.184Z,23.38
2022-11-30T17:38:56.740Z,23.83
2022-11-30T17:41:24.073Z,23.33
2022-11-30T17:43:52.140Z,23.38
2022-11-30T17:46:19.534Z,23.58
2022-11-30T17:48:46.871Z,22.75
2022-11-30T17:51:14.284Z,23.17
2022-11-30T17:53:42.137Z,23.13
2022-11-30T17:56:18.535Z,22.00
2022-11-30T17:58:46.503Z,23.08
2022-11-30T18:01:17.716Z,23.88
2022-11-30T18:03:45.408Z,23.92
2022-11-30T18:06:13.130Z,23.23
2022-11-30T18:08:40.521Z,21.80
2022-11-30T18:11:20.842Z,23.17
2022-11-30T18:13:49.931Z,22.83
2022-11-30T18:16:24.992Z,22.58
2022-11-30T18:18:52.767Z,22.13
2022-11-30T18:21:21.352Z,22.05
2022-11-30T18:23:48.939Z,24.05
2022-11-30T18:26:18.059Z,23.45
2022-11-30T18:28:45.569Z,22.60
2022-11-30T18:31:13.298Z,23.83
2022-11-30T18:33:40.947Z,23.23
2022-11-30T18:36:08.420Z,22.48
2022-11-30T18:38:38.552Z,22.52
2022-11-30T18:41:06.428Z,23.88
2022-11-30T18:43:34.405Z,22.10
2022-11-30T18:46:09.472Z,23.35
2022-11-30T18:48:37.039Z,23.83
2022-11-30T18:51:14.346Z,23.73
2022-11-30T18:53:41.761Z,24.38
2022-11-30T18:56:16.863Z,25.13
2022-11-30T18:58:44.359Z,24.58
2022-11-30T19:01:16.620Z,24.60
2022-11-30T19:03:44.037Z,25.08
2022-11-30T19:06:11.393Z,24.42
2022-11-30T19:08:39.507Z,24.77
2022-11-30T19:11:08.100Z,26.15
2022-11-30T19:13:35.657Z,24.92
2022-11-30T19:16:04.247Z,27.48
2022-11-30T19:18:31.682Z,25.23
2022-11-30T19:20:58.990Z,24.40
2022-11-30T19:23:26.348Z,24.98
2022-11-30T19:25:55.086Z,25.17
2022-11-30T19:28:22.396Z,26.92
2022-11-30T19:30:49.701Z,24.52
2022-11-30T19:33:16.961Z,26.65
2022-11-30T19:35:44.238Z,26.20
2022-11-30T19:38:11.558Z,26.60
2022-11-30T19:40:38.994Z,25.92
2022-11-30T19:43:06.291Z,26.92
2022-11-30T19:45:34.480Z,27.55
2022-11-30T19:48:01.812Z,27.10
2022-11-30T19:50:29.157Z,25.98
2022-11-30T19:52:57.126Z,27.38
2022-11-30T19:55:24.434Z,25.40
2022-11-30T19:57:51.755Z,26.83
2022-11-30T20:00:19.452Z,27.00
2022-11-30T20:02:49.452Z,27.10
2022-11-30T20:05:17.524Z,26.92
2022-11-30T20:07:44.985Z,28.13
2022-11-30T20:10:15.270Z,28.38
2022-11-30T20:12:42.612Z,26.73
2022-11-30T20:15:10.347Z,27.15
2022-11-30T20:17:37.672Z,28.30
2022-11-30T20:20:05.625Z,26.40
2022-11-30T20:22:33.709Z,28.35
2022-11-30T20:25:01.019Z,27.05
2022-11-30T20:27:28.355Z,27.35
2022-11-30T20:29:56.292Z,28.25
2022-11-30T20:32:24.125Z,28.17
2022-11-30T20:34:51.652Z,27.70
2022-11-30T20:37:19.099Z,27.15
2022-11-30T20:39:46.559Z,26.88
2022-11-30T20:42:13.951Z,27.90
2022-11-30T20:44:41.239Z,27.30
2022-11-30T20:47:08.611Z,28.02
2022-11-30T20:49:35.888Z,27.75
2022-11-30T20:52:03.740Z,28.58
2022-11-30T20:54:31.578Z,27.70
2022-11-30T20:56:59.208Z,28.70
2022-11-30T20:59:26.825Z,29.67
2022-11-30T21:01:55.094Z,30.55
2022-11-30T21:04:23.696Z,31.27
2022-11-30T21:06:51.066Z,30.63
2022-11-30T21:09:19.094Z,29.00
2022-11-30T21:11:47.215Z,28.42
2022-11-30T21:14:14.677Z,30.10
2022-11-30T21:16:42.072Z,30.08
2022-11-30T21:19:10.684Z,30.02
2022-11-30T21:21:38.075Z,29.15
2022-11-30T21:24:07.521Z,29.02
2022-11-30T21:26:39.646Z,28.67
2022-11-30T21:29:16.643Z,29.00
2022-11-30T21:31:44.718Z,29.45
2022-11-30T21:34:12.183Z,28.30
2022-11-30T21:36:39.483Z,27.75
2022-11-30T21:39:07.590Z,29.88
2022-11-30T21:41:36.352Z,29.10
2022-11-30T21:44:04.278Z,29.02
2022-11-30T21:46:31.858Z,28.33
2022-11-30T21:48:59.367Z,29.25
2022-11-30T21:51:27.733Z,28.08
2022-11-30T21:53:57.300Z,29.25
2022-11-30T21:56:27.357Z,29.30
2022-11-30T21:58:54.840Z,29.70
2022-11-30T22:01:27.618Z,29.25
2022-11-30T22:03:55.916Z,30.83
2022-11-30T22:06:23.731Z,29.08
2022-11-30T22:08:51.032Z,28.77
2022-11-30T22:11:19.770Z,29.25
2022-11-30T22:13:53.579Z,27.80
2022-11-30T22:16:22.120Z,22.03
2022-11-30T22:18:52.117Z,29.33
2022-11-30T22:21:21.288Z,27.63
2022-11-30T22:23:53.381Z,28.88
2022-11-30T22:26:25.169Z,27.40
2022-11-30T22:28:57.278Z,27.92
2022-11-30T22:31:33.448Z,28.58
2022-11-30T22:34:00.843Z,29.15
2022-11-30T22:36:29.592Z,29.40
2022-11-30T22:39:01.522Z,28.88
2022-11-30T22:41:28.948Z,29.77
2022-11-30T22:43:56.433Z,28.55
2022-11-30T22:46:25.367Z,28.13
2022-11-30T22:48:52.859Z,28.92
2022-11-30T22:51:21.666Z,29.35
2022-11-30T22:53:49.266Z,25.35
2022-11-30T22:56:21.217Z,28.85
2022-11-30T22:58:49.470Z,26.90
2022-11-30T23:01:19.105Z,26.42
2022-11-30T23:03:47.285Z,28.83
2022-11-30T23:06:15.553Z,26.40
2022-11-30T23:08:43.142Z,26.13
2022-11-30T23:11:12.269Z,27.77
2022-11-30T23:13:39.829Z,28.98
2022-11-30T23:16:07.761Z,28.92
2022-11-30T23:18:40.054Z,28.83
2022-11-30T23:21:18.433Z,29.85
2022-11-30T23:23:46.061Z,28.98
2022-11-30T23:26:15.052Z,30.55
2022-11-30T23:28:42.990Z,29.25
2022-11-30T23:31:34.253Z,32.13
2022-11-30T23:33:59.595Z,32.42
2022-11-30T23:36:26.857Z,33.35
2022-11-30T23:38:56.842Z,34.05
2022-11-30T23:41:24.121Z,32.03
2022-11-30T23:43:51.582Z,31.60
2022-11-30T23:46:18.926Z,31.75
2022-11-30T23:48:46.344Z,33.17
2022-11-30T23:51:13.602Z,32.15
2022-11-30T23:53:40.929Z,34.90
2022-11-30T23:56:11.169Z,33.92
2022-11-30T23:58:39.615Z,34.67
